Time;durP1;ratioP1;P1;durP2;ratioP2;P2;SDS_P1;SDS_P2;PMS_P1;PMS_P2;Temp;Humidity;BMP_temperature;BMP_pressure;BME280_temperature;BME280_humidity;BME280_pressure;Samples;Min_cycle;Max_cycle;Signal;HPM_P1;HPM_P2
2023/05/03 00:01:32;;;;;;;9.80;4.70;;;;;;;3.99;100.00;99623.56;4180972;28;20460;-71
2023/05/03 00:03:32;;;;;;;8.00;5.18;;;;;;;3.91;100.00;99616.88;4181515;28;20055;-71
2023/05/03 00:05:33;;;;;;;8.10;4.93;;;;;;;3.80;100.00;99611.91;4180519;28;20037;-71
2023/05/03 00:07:33;;;;;;;10.18;4.70;;;;;;;3.74;100.00;99610.41;4181523;28;20485;-71
2023/05/03 00:09:34;;;;;;;7.43;4.40;;;;;;;3.69;100.00;99605.84;4184547;28;20070;-71
2023/05/03 00:11:35;;;;;;;5.95;4.88;;;;;;;3.69;100.00;99610.50;4179783;28;20048;-71
2023/05/03 00:13:36;;;;;;;8.07;4.95;;;;;;;3.65;100.00;99602.91;4180371;28;20041;-71
2023/05/03 00:15:36;;;;;;;7.43;4.50;;;;;;;3.62;100.00;99606.25;4182387;28;20051;-71
2023/05/03 00:17:36;;;;;;;7.60;4.82;;;;;;;3.62;100.00;99599.97;4184886;28;20047;-71
2023/05/03 00:19:38;;;;;;;7.25;5.00;;;;;;;3.59;100.00;99597.84;4182651;28;20048;-71
2023/05/03 00:21:38;;;;;;;9.82;5.00;;;;;;;3.47;100.00;99598.31;4185708;28;20079;-71
2023/05/03 00:23:39;;;;;;;6.70;4.60;;;;;;;3.36;100.00;99597.72;4182259;28;20108;-71
2023/05/03 00:25:39;;;;;;;8.73;4.85;;;;;;;3.30;100.00;99598.13;4184673;28;20140;-71
2023/05/03 00:27:39;;;;;;;6.75;5.10;;;;;;;3.20;100.00;99604.59;4188410;28;20052;-71
2023/05/03 00:29:40;;;;;;;7.80;4.65;;;;;;;3.13;100.00;99606.09;4184594;28;20697;-71
2023/05/03 00:31:42;;;;;;;7.93;5.15;;;;;;;3.08;100.00;99593.34;4178854;28;20110;-71
2023/05/03 00:33:43;;;;;;;;;;;;;;;3.01;100.00;99606.59;4184964;28;20048;-71
2023/05/03 00:35:43;;;;;;;8.52;4.97;;;;;;;2.97;100.00;99597.34;4184281;28;19919;-71
2023/05/03 00:37:43;;;;;;;8.68;5.30;;;;;;;2.90;100.00;99602.44;4183963;28;20431;-71
2023/05/03 00:39:44;;;;;;;10.05;5.38;;;;;;;2.83;100.00;99597.34;4182937;28;20186;-71
2023/05/03 00:41:44;;;;;;;10.40;5.60;;;;;;;2.79;100.00;99583.44;4183592;28;20037;-71
2023/05/03 00:43:44;;;;;;;9.80;5.53;;;;;;;2.80;100.00;99595.19;4185483;28;20049;-71
2023/05/03 00:45:46;;;;;;;8.45;5.25;;;;;;;2.69;100.00;99589.09;4184184;28;20041;-71
2023/05/03 00:47:47;;;;;;;8.60;5.20;;;;;;;2.64;100.00;99589.16;4184865;28;20354;-71
2023/05/03 00:49:47;;;;;;;11.13;5.40;;;;;;;2.62;100.00;99587.84;4184237;28;20055;-71
2023/05/03 00:51:49;;;;;;;6.97;4.75;;;;;;;2.53;100.00;99590.47;4182390;28;20389;-71
2023/05/03 00:53:50;;;;;;;8.50;4.90;;;;;;;2.50;100.00;99593.78;4182782;28;20068;-71
2023/05/03 00:55:52;;;;;;;11.85;5.82;;;;;;;2.44;100.00;99590.31;4186675;28;20064;-71
2023/05/03 00:57:52;;;;;;;8.95;5.90;;;;;;;2.40;100.00;99593.94;4181388;28;20124;-71
2023/05/03 00:59:52;;;;;;;8.50;5.28;;;;;;;2.34;100.00;99597.88;4185594;28;20080;-71
2023/05/03 01:01:53;;;;;;;10.43;5.68;;;;;;;2.31;100.00;99596.53;4181765;28;20060;-71
2023/05/03 01:03:53;;;;;;;10.35;5.03;;;;;;;2.25;100.00;99587.63;4185675;28;20075;-71
2023/05/03 01:06:07;;;;;;;8.55;5.47;;;;;;;2.21;100.00;99589.31;4181939;28;20123;-71
2023/05/03 01:08:39;;;;;;;7.93;5.13;;;;;;;2.14;100.00;99598.97;4179073;28;20473;-71
2023/05/03 01:11:06;;;;;;;9.73;5.05;;;;;;;2.04;100.00;99590.94;4165667;28;20036;-71
2023/05/03 01:13:41;;;;;;;8.80;5.55;;;;;;;1.94;100.00;99600.06;4184400;28;20076;-71
2023/05/03 01:15:51;;;;;;;7.35;4.45;;;;;;;1.85;100.00;99593.66;4185099;28;20075;-71
2023/05/03 01:18:01;;;;;;;6.93;4.60;;;;;;;1.76;100.00;99589.94;4181749;28;20392;-71
2023/05/03 01:20:09;;;;;;;8.18;5.30;;;;;;;1.69;100.00;99582.13;4184872;28;20055;-70
2023/05/03 01:22:36;;;;;;;8.23;5.05;;;;;;;1.58;100.00;99586.91;4186253;28;20276;-70
2023/05/03 01:24:40;;;;;;;10.73;5.38;;;;;;;1.50;100.00;99589.47;4182020;28;20044;-70
2023/05/03 01:26:41;;;;;;;7.75;4.72;;;;;;;1.49;100.00;99596.84;4177573;28;20045;-70
2023/05/03 01:28:41;;;;;;;7.63;4.80;;;;;;;1.44;100.00;99596.88;4182920;28;20500;-70
2023/05/03 01:30:42;;;;;;;8.10;4.90;;;;;;;1.38;100.00;99595.31;4182865;28;20566;-70
2023/05/03 01:32:50;;;;;;;7.07;5.00;;;;;;;1.38;100.00;99598.03;4183080;28;20049;-70
2023/05/03 01:35:07;;;;;;;9.93;5.50;;;;;;;1.50;100.00;99595.72;4182246;28;20046;-70
2023/05/03 01:37:09;;;;;;;7.75;4.88;;;;;;;1.46;100.00;99594.66;4178584;28;20098;-70
2023/05/03 01:39:22;;;;;;;8.60;4.90;;;;;;;1.34;100.00;99589.63;4182990;28;20315;-70
2023/05/03 01:41:25;;;;;;;7.80;4.63;;;;;;;1.30;100.00;99590.50;4183829;28;20064;-70
2023/05/03 01:43:30;;;;;;;7.88;4.25;;;;;;;1.26;100.00;99592.19;4180882;28;20056;-70
2023/05/03 01:45:30;;;;;;;8.23;5.18;;;;;;;1.17;100.00;99585.75;4183691;28;20049;-71
2023/05/03 01:47:30;;;;;;;8.30;4.70;;;;;;;1.15;100.00;99588.72;4184800;28;20055;-71
2023/05/03 01:49:32;;;;;;;8.10;4.70;;;;;;;1.06;100.00;99591.28;4181427;28;20049;-71
2023/05/03 01:51:32;;;;;;;7.20;4.85;;;;;;;0.96;100.00;99587.84;4182489;28;20044;-71
2023/05/03 01:53:32;;;;;;;6.75;4.15;;;;;;;0.94;100.00;99596.31;4183191;28;20041;-71
2023/05/03 01:55:33;;;;;;;9.05;5.25;;;;;;;0.83;100.00;99606.50;4183444;28;20056;-71
2023/05/03 01:57:33;;;;;;;8.15;4.57;;;;;;;0.81;100.00;99597.78;4177547;28;20420;-71
2023/05/03 01:59:33;;;;;;;10.15;6.53;;;;;;;0.71;100.00;99605.25;4183811;28;20036;-71
2023/05/03 02:01:33;;;;;;;7.53;4.85;;;;;;;0.69;100.00;99604.72;4179055;28;20409;-71
2023/05/03 02:03:34;;;;;;;8.88;5.65;;;;;;;0.69;100.00;99608.25;4182277;28;20047;-70
2023/05/03 02:05:34;;;;;;;8.50;4.70;;;;;;;0.67;100.00;99615.09;4179569;28;20037;-70
2023/05/03 02:07:34;;;;;;;9.82;4.95;;;;;;;0.66;100.00;99610.72;4181424;28;20044;-70
2023/05/03 02:09:35;;;;;;;6.88;4.82;;;;;;;0.64;100.00;99600.13;4180898;28;20094;-70
2023/05/03 02:11:35;;;;;;;8.15;4.88;;;;;;;0.60;100.00;99609.16;4183626;28;20032;-70
2023/05/03 02:13:37;;;;;;;7.53;4.40;;;;;;;0.54;100.00;99611.91;4181983;28;20044;-71
2023/05/03 02:15:37;;;;;;;12.13;5.17;;;;;;;0.49;100.00;99605.69;4177275;28;20052;-71
2023/05/03 02:17:38;;;;;;;9.00;5.25;;;;;;;0.43;100.00;99613.09;4182314;28;20052;-71
2023/05/03 02:19:38;;;;;;;9.95;5.32;;;;;;;0.36;100.00;99615.31;4181933;28;20548;-71
2023/05/03 02:21:38;;;;;;;10.02;5.28;;;;;;;0.22;100.00;99617.06;4184691;28;20037;-71
2023/05/03 02:23:39;;;;;;;7.43;4.50;;;;;;;0.16;100.00;99615.44;4181120;28;20051;-70
2023/05/03 02:25:40;;;;;;;6.72;4.38;;;;;;;0.14;100.00;99625.81;4185618;28;20052;-70
2023/05/03 02:27:40;;;;;;;10.45;4.72;;;;;;;0.16;100.00;99612.72;4180028;28;20405;-70
2023/05/03 02:29:41;;;;;;;7.53;4.85;;;;;;;0.10;100.00;99611.97;4179522;28;20045;-70
2023/05/03 02:31:41;;;;;;;7.45;4.38;;;;;;;0.02;100.00;99618.00;4184101;28;20040;-70
2023/05/03 02:33:41;;;;;;;8.82;4.97;;;;;;;0.03;100.00;99613.38;4182240;28;20064;-70
2023/05/03 02:35:42;;;;;;;8.05;4.50;;;;;;;-0.01;100.00;99607.66;4182331;28;20048;-70
2023/05/03 02:37:42;;;;;;;9.70;5.68;;;;;;;-0.01;100.00;99616.63;4184633;28;20044;-70
2023/05/03 02:39:42;;;;;;;10.35;5.65;;;;;;;0.02;100.00;99609.03;4182112;28;20461;-70
2023/05/03 02:41:43;;;;;;;11.95;5.88;;;;;;;-0.08;100.00;99618.88;4176993;28;20363;-70
2023/05/03 02:43:43;;;;;;;9.20;5.28;;;;;;;-0.13;100.00;99615.34;4180326;28;20048;-70
2023/05/03 02:45:43;;;;;;;7.43;5.13;;;;;;;-0.14;100.00;99621.91;4187309;28;20055;-70
2023/05/03 02:47:44;;;;;;;9.98;5.35;;;;;;;-0.14;100.00;99630.88;4182071;28;20449;-70
2023/05/03 02:49:44;;;;;;;7.90;4.78;;;;;;;-0.20;100.00;99626.53;4181947;28;20131;-70
2023/05/03 02:51:44;;;;;;;7.93;4.82;;;;;;;-0.21;100.00;99630.34;4182386;28;20046;-70
2023/05/03 02:53:45;;;;;;;9.80;5.07;;;;;;;-0.23;100.00;99626.28;4182679;28;20252;-70
2023/05/03 02:55:45;;;;;;;9.50;5.22;;;;;;;-0.29;100.00;99634.47;4182230;28;20116;-70
2023/05/03 02:57:45;;;;;;;9.52;5.47;;;;;;;-0.32;100.00;99618.72;4182052;28;20073;-70
2023/05/03 02:59:48;;;;;;;16.17;6.43;;;;;;;-0.32;100.00;99620.63;4181706;28;20049;-70
2023/05/03 03:01:48;;;;;;;10.70;5.55;;;;;;;-0.31;100.00;99627.69;4176638;28;20053;-70
2023/05/03 03:03:49;;;;;;;10.00;4.93;;;;;;;-0.31;100.00;99630.41;4182330;28;20048;-70
2023/05/03 03:05:49;;;;;;;8.52;5.78;;;;;;;-0.31;100.00;99625.78;4182567;28;20043;-70
2023/05/03 03:07:50;;;;;;;10.70;6.40;;;;;;;-0.23;100.00;99626.28;4179519;28;20052;-70
2023/05/03 03:09:50;;;;;;;10.07;5.78;;;;;;;-0.21;100.00;99616.75;4179928;28;20044;-70
2023/05/03 03:11:51;;;;;;;11.80;5.55;;;;;;;-0.21;100.00;99624.91;4182142;28;20044;-70
2023/05/03 03:13:51;;;;;;;9.65;5.07;;;;;;;-0.21;100.00;99622.19;4182662;28;20045;-70
2023/05/03 03:15:52;;;;;;;10.55;5.45;;;;;;;-0.23;100.00;99626.28;4175655;28;20029;-70
2023/05/03 03:17:56;;;;;;;10.50;5.85;;;;;;;-0.27;100.00;99626.03;4183502;28;20823;-70
2023/05/03 03:19:57;;;;;;;9.88;4.95;;;;;;;-0.25;100.00;99623.00;4182362;28;20037;-70
2023/05/03 03:21:57;;;;;;;8.63;5.22;;;;;;;-0.30;100.00;99627.41;4177146;28;20041;-70
2023/05/03 03:23:58;;;;;;;8.77;5.50;;;;;;;-0.36;100.00;99633.94;4185081;28;20548;-70
2023/05/03 03:25:58;;;;;;;9.13;5.15;;;;;;;-0.44;100.00;99631.00;4181588;28;20051;-70
2023/05/03 03:27:59;;;;;;;8.60;5.20;;;;;;;-0.47;100.00;99621.50;4184618;28;20368;-70
2023/05/03 03:29:59;;;;;;;9.25;5.60;;;;;;;-0.50;100.00;99637.53;4177027;28;20095;-70
2023/05/03 03:32:00;;;;;;;12.23;5.57;;;;;;;-0.55;100.00;99632.13;4183294;28;20048;-70
2023/05/03 03:34:00;;;;;;;11.52;5.28;;;;;;;-0.60;100.00;99631.03;4175259;28;20041;-70
2023/05/03 03:36:00;;;;;;;9.75;5.97;;;;;;;-0.65;100.00;99627.53;4181855;28;20075;-71
2023/05/03 03:38:01;;;;;;;19.70;6.63;;;;;;;-0.67;100.00;99625.06;4182178;28;20045;-72
2023/05/03 03:40:01;;;;;;;10.65;5.35;;;;;;;-0.66;100.00;99628.63;4181443;28;20044;-71
2023/05/03 03:42:01;;;;;;;9.30;5.78;;;;;;;-0.66;100.00;99634.06;4178159;28;20123;-71
2023/05/03 03:44:02;;;;;;;11.02;5.88;;;;;;;-0.66;100.00;99642.22;4182304;28;20323;-70
2023/05/03 03:46:02;;;;;;;11.48;6.28;;;;;;;-0.68;100.00;99633.50;4182019;28;20185;-70
2023/05/03 03:48:03;;;;;;;8.85;5.88;;;;;;;-0.65;100.00;99636.50;4179999;28;20029;-70
2023/05/03 03:50:03;;;;;;;12.73;6.43;;;;;;;-0.66;100.00;99639.50;4178352;28;20032;-70
2023/05/03 03:52:05;;;;;;;11.57;5.93;;;;;;;-0.67;100.00;99646.81;4185875;28;20048;-70
2023/05/03 03:54:05;;;;;;;13.48;6.13;;;;;;;-0.67;100.00;99641.38;4185989;28;20032;-70
2023/05/03 03:56:06;;;;;;;11.55;6.28;;;;;;;-0.66;100.00;99647.66;4182642;28;20050;-70
2023/05/03 03:58:07;;;;;;;13.90;7.75;;;;;;;-0.64;100.00;99654.44;4182701;28;20092;-70
2023/05/03 04:00:09;;;;;;;13.13;6.68;;;;;;;-0.61;100.00;99651.16;4185754;28;20048;-70
2023/05/03 04:02:09;;;;;;;15.27;7.07;;;;;;;-0.58;100.00;99650.63;4181942;28;20097;-70
2023/05/03 04:04:10;;;;;;;12.30;6.80;;;;;;;-0.51;100.00;99655.75;4181248;28;20051;-70
2023/05/03 04:06:10;;;;;;;10.02;5.78;;;;;;;-0.46;100.00;99660.38;4183724;28;20076;-70
2023/05/03 04:08:10;;;;;;;10.05;5.93;;;;;;;-0.42;100.00;99666.88;4182892;28;20078;-70
2023/05/03 04:10:11;;;;;;;11.32;6.07;;;;;;;-0.37;100.00;99675.81;4183130;28;20040;-70
2023/05/03 04:12:11;;;;;;;13.18;6.72;;;;;;;-0.36;100.00;99673.91;4182511;28;20445;-70
2023/05/03 04:14:11;;;;;;;10.00;5.82;;;;;;;-0.36;100.00;99672.00;4177926;28;20032;-70
2023/05/03 04:16:12;;;;;;;9.82;6.03;;;;;;;-0.37;100.00;99675.00;4184396;28;20132;-70
2023/05/03 04:18:12;;;;;;;11.88;6.05;;;;;;;-0.38;100.00;99679.66;4181885;28;20024;-70
2023/05/03 04:20:12;;;;;;;10.07;5.93;;;;;;;-0.40;100.00;99678.31;4184239;28;20025;-70
2023/05/03 04:22:13;;;;;;;12.18;5.93;;;;;;;-0.41;100.00;99673.97;4183689;28;20035;-70
2023/05/03 04:24:16;;;;;;;11.70;6.40;;;;;;;-0.45;100.00;99684.56;4182196;28;20460;-70
2023/05/03 04:26:16;;;;;;;8.82;5.60;;;;;;;-0.50;100.00;99676.41;4182118;28;20025;-70
2023/05/03 04:28:17;;;;;;;9.68;5.72;;;;;;;-0.48;100.00;99687.84;4181450;28;20087;-70
2023/05/03 04:30:18;;;;;;;12.65;5.72;;;;;;;-0.44;100.00;99680.75;4184499;28;20028;-70
2023/05/03 04:32:22;;;;;;;11.27;6.18;;;;;;;-0.36;100.00;99690.25;4182083;28;20025;-70
2023/05/03 04:34:23;;;;;;;10.05;5.68;;;;;;;-0.36;100.00;99688.34;4183133;28;20041;-70
2023/05/03 04:36:25;;;;;;;9.68;5.95;;;;;;;-0.30;100.00;99686.41;4182711;28;20499;-70
2023/05/03 04:38:25;;;;;;;9.03;5.40;;;;;;;-0.28;100.00;99695.91;4184596;28;20469;-70
2023/05/03 04:40:26;;;;;;;14.10;8.05;;;;;;;-0.22;100.00;99695.91;4180615;28;20430;-70
2023/05/03 04:42:26;;;;;;;18.08;9.90;;;;;;;-0.22;100.00;99695.91;4178708;28;20049;-70
2023/05/03 04:44:27;;;;;;;9.57;6.93;;;;;;;-0.15;100.00;99691.81;4180862;28;20468;-70
2023/05/03 04:46:27;;;;;;;12.40;7.35;;;;;;;0.01;100.00;99686.31;4181646;28;20060;-70
2023/05/03 04:48:28;;;;;;;10.10;5.55;;;;;;;0.12;100.00;99701.50;4190145;28;20145;-70
2023/05/03 04:50:28;;;;;;;11.23;6.47;;;;;;;0.16;100.00;99692.47;4181131;28;20037;-70
2023/05/03 04:52:28;;;;;;;12.48;6.40;;;;;;;0.24;100.00;99700.03;4178860;28;20090;-70
2023/05/03 04:54:29;;;;;;;13.82;6.38;;;;;;;0.30;100.00;99700.84;4180770;28;20079;-70
2023/05/03 04:56:30;;;;;;;9.90;6.28;;;;;;;0.38;100.00;99702.97;4180991;28;20417;-70
2023/05/03 04:58:30;;;;;;;10.43;6.28;;;;;;;0.53;100.00;99704.81;4180159;28;20041;-70
2023/05/03 05:00:30;;;;;;;9.98;5.40;;;;;;;0.63;100.00;99699.28;4180224;28;20127;-70
2023/05/03 05:02:30;;;;;;;12.52;6.50;;;;;;;0.71;100.00;99706.03;4181076;28;20051;-70
2023/05/03 05:04:31;;;;;;;13.45;6.50;;;;;;;0.72;100.00;99703.03;4181215;28;20048;-70
2023/05/03 05:06:31;;;;;;;9.65;5.60;;;;;;;0.75;100.00;99705.19;4182345;28;20377;-70
2023/05/03 05:08:32;;;;;;;9.95;6.15;;;;;;;0.84;100.00;99708.13;4179588;28;20068;-70
2023/05/03 05:10:36;;;;;;;8.82;5.57;;;;;;;0.93;100.00;99708.34;4182980;28;20122;-70
2023/05/03 05:12:37;;;;;;;11.52;6.03;;;;;;;1.05;100.00;99706.84;4183206;28;20036;-70
2023/05/03 05:14:37;;;;;;;11.93;6.35;;;;;;;1.13;100.00;99708.97;4180204;28;20373;-70
2023/05/03 05:16:37;;;;;;;9.70;6.45;;;;;;;1.22;100.00;99716.53;4180581;28;20036;-70
2023/05/03 05:18:38;;;;;;;11.15;6.50;;;;;;;1.29;100.00;99708.84;4181989;28;20040;-70
2023/05/03 05:20:38;;;;;;;9.07;5.47;;;;;;;1.41;100.00;99712.00;4180840;28;20121;-70
2023/05/03 05:22:38;;;;;;;8.93;5.82;;;;;;;1.46;100.00;99716.59;4178689;28;20041;-70
2023/05/03 05:24:39;;;;;;;9.35;6.43;;;;;;;1.54;100.00;99722.22;4180969;28;20084;-70
2023/05/03 05:26:41;;;;;;;9.00;5.70;;;;;;;1.65;100.00;99715.56;4180447;28;20048;-70
2023/05/03 05:28:41;;;;;;;10.50;5.50;;;;;;;1.74;100.00;99712.19;4182520;28;20532;-70
2023/05/03 05:30:41;;;;;;;10.25;6.13;;;;;;;1.81;100.00;99716.22;4180930;28;20052;-70
2023/05/03 05:32:42;;;;;;;10.63;5.72;;;;;;;1.89;100.00;99721.03;4179465;28;20529;-70
2023/05/03 05:34:43;;;;;;;9.60;6.03;;;;;;;1.90;100.00;99719.94;4176155;28;20037;-70
2023/05/03 05:36:44;;;;;;;8.02;5.30;;;;;;;1.93;100.00;99724.00;4182560;28;20426;-70
2023/05/03 05:38:44;;;;;;;11.70;5.95;;;;;;;2.02;100.00;99729.63;4181318;28;20037;-70
2023/05/03 05:40:45;;;;;;;9.98;5.80;;;;;;;2.06;100.00;99723.28;4183967;28;20041;-70
2023/05/03 05:42:47;;;;;;;13.85;5.43;;;;;;;2.11;100.00;99733.34;4184867;28;20098;-70
2023/05/03 05:44:47;;;;;;;10.55;6.32;;;;;;;2.18;100.00;99731.06;4182928;28;20167;-70
2023/05/03 05:46:48;;;;;;;10.77;6.18;;;;;;;2.26;100.00;99727.69;4182938;28;20547;-70
2023/05/03 05:48:50;;;;;;;10.82;6.28;;;;;;;2.30;100.00;99730.66;4185335;28;20055;-70
2023/05/03 05:50:50;;;;;;;8.27;5.40;;;;;;;2.37;100.00;99733.84;4179988;28;20268;-70
2023/05/03 05:52:54;;;;;;;11.82;5.30;;;;;;;2.45;100.00;99739.44;4179944;28;20374;-70
2023/05/03 05:54:54;;;;;;;11.73;5.82;;;;;;;2.51;100.00;99726.53;4181661;28;20044;-70
2023/05/03 05:56:54;;;;;;;10.75;6.05;;;;;;;2.54;100.00;99728.69;4186128;28;20131;-70
2023/05/03 05:58:55;;;;;;;8.68;5.03;;;;;;;2.58;100.00;99727.00;4184040;28;20524;-70
2023/05/03 06:01:00;;;;;;;8.13;5.60;;;;;;;2.65;100.00;99734.81;4183456;28;20123;-70
2023/05/03 06:03:00;;;;;;;7.70;5.63;;;;;;;2.71;100.00;99728.16;4184031;28;20032;-70
2023/05/03 06:05:01;;;;;;;7.93;5.95;;;;;;;2.76;100.00;99734.38;4182591;28;20153;-70
2023/05/03 06:07:01;;;;;;;11.20;5.85;;;;;;;2.85;100.00;99734.53;4182499;28;20029;-70
2023/05/03 06:09:01;;;;;;;9.98;6.45;;;;;;;2.91;100.00;99732.53;4184495;28;20531;-70
2023/05/03 06:11:02;;;;;;;9.93;5.97;;;;;;;2.98;100.00;99732.94;4178223;28;20301;-70
2023/05/03 06:13:02;;;;;;;8.25;5.40;;;;;;;3.05;100.00;99728.72;4181607;28;20039;-70
2023/05/03 06:15:03;;;;;;;13.35;5.82;;;;;;;3.15;100.00;99733.25;4098407;28;20078;-70
2023/05/03 06:17:04;;;;;;;11.57;5.82;;;;;;;3.23;100.00;99729.03;4198408;28;20036;-70
2023/05/03 06:19:04;;;;;;;10.35;6.32;;;;;;;3.30;100.00;99726.69;4181537;28;20033;-70
2023/05/03 06:21:05;;;;;;;9.00;5.97;;;;;;;3.36;100.00;99728.22;4182428;28;20055;-70
2023/05/03 06:23:05;;;;;;;10.82;5.57;;;;;;;3.41;100.00;99728.16;4180009;28;20041;-70
2023/05/03 06:25:09;;;;;;;13.48;6.43;;;;;;;3.48;100.00;99733.25;4181013;28;20388;-70
2023/05/03 06:27:09;;;;;;;10.07;5.55;;;;;;;3.49;100.00;99730.19;4183101;28;20036;-70
2023/05/03 06:29:10;;;;;;;10.63;5.93;;;;;;;3.56;100.00;99729.81;4182912;28;20095;-70
2023/05/03 06:31:10;;;;;;;10.00;6.00;;;;;;;3.60;100.00;99728.09;4178941;28;20084;-70
2023/05/03 06:33:13;;;;;;;11.55;5.45;;;;;;;3.66;100.00;99730.44;4183494;28;20064;-70
2023/05/03 06:35:14;;;;;;;8.43;4.88;;;;;;;3.74;100.00;99723.44;4183097;28;20039;-70
2023/05/03 06:37:15;;;;;;;9.80;5.50;;;;;;;3.82;100.00;99732.88;4179001;28;20136;-70
2023/05/03 06:39:16;;;;;;;11.40;5.18;;;;;;;3.89;100.00;99731.38;4182460;28;20033;-70
2023/05/03 06:41:16;;;;;;;12.55;5.97;;;;;;;4.02;100.00;99732.47;4183126;28;20037;-70
2023/05/03 06:43:17;;;;;;;11.52;5.93;;;;;;;4.08;100.00;99735.94;4183951;28;20051;-70
2023/05/03 06:45:17;;;;;;;9.00;5.40;;;;;;;4.18;100.00;99724.78;4181791;28;20493;-70
2023/05/03 06:47:19;;;;;;;12.70;5.50;;;;;;;4.25;100.00;99733.41;4181637;28;20142;-70
2023/05/03 06:49:21;;;;;;;7.13;4.97;;;;;;;4.31;100.00;99726.69;4178873;28;20363;-70
2023/05/03 06:51:26;;;;;;;8.23;5.07;;;;;;;4.42;100.00;99736.31;4179460;28;20135;-70
2023/05/03 06:53:27;;;;;;;8.05;5.38;;;;;;;4.47;100.00;99730.75;4181479;28;20355;-70
2023/05/03 06:55:28;;;;;;;12.02;4.72;;;;;;;4.56;100.00;99730.81;4182954;28;20083;-70
2023/05/03 06:57:28;;;;;;;9.95;5.45;;;;;;;4.62;100.00;99726.03;4177668;28;20041;-70
2023/05/03 06:59:28;;;;;;;10.02;5.53;;;;;;;4.65;100.00;99726.22;4183211;28;20381;-70
2023/05/03 07:01:30;;;;;;;12.77;5.50;;;;;;;4.73;100.00;99724.69;4180911;28;20182;-70
2023/05/03 07:03:30;;;;;;;8.95;4.80;;;;;;;4.77;100.00;99721.00;4182358;28;20044;-70
2023/05/03 07:05:30;;;;;;;9.48;5.53;;;;;;;4.86;100.00;99726.56;4179402;28;20043;-70
2023/05/03 07:07:32;;;;;;;10.55;5.25;;;;;;;4.92;100.00;99728.06;4183365;28;20475;-70
2023/05/03 07:09:32;;;;;;;11.90;5.25;;;;;;;5.01;100.00;99720.72;4183551;28;20097;-70
2023/05/03 07:11:36;;;;;;;12.20;5.68;;;;;;;5.05;100.00;99724.47;4181125;28;20103;-70
2023/05/03 07:13:36;;;;;;;8.40;4.57;;;;;;;5.12;100.00;99724.03;4182139;28;20044;-70
2023/05/03 07:15:36;;;;;;;9.90;4.85;;;;;;;5.17;100.00;99715.69;4181112;28;20039;-70
2023/05/03 07:17:37;;;;;;;8.55;5.05;;;;;;;5.23;100.00;99716.38;4183127;28;20999;-71
2023/05/03 07:19:37;;;;;;;11.55;4.47;;;;;;;5.26;100.00;99711.06;4179359;28;20222;-70
2023/05/03 07:21:38;;;;;;;7.80;4.72;;;;;;;5.31;100.00;99712.88;4181476;28;20036;-70
2023/05/03 07:23:39;;;;;;;6.93;4.40;;;;;;;5.45;100.00;99716.34;4177337;28;20048;-70
2023/05/03 07:25:40;;;;;;;7.00;4.55;;;;;;;5.59;100.00;99714.31;4181535;28;20124;-70
2023/05/03 07:27:40;;;;;;;7.03;4.30;;;;;;;5.73;100.00;99718.91;4186117;28;20044;-70
2023/05/03 07:29:41;;;;;;;9.90;4.78;;;;;;;5.82;100.00;99715.09;4185847;28;20043;-70
2023/05/03 07:31:43;;;;;;;8.07;5.22;;;;;;;5.88;100.00;99711.09;4187987;28;20102;-70
2023/05/03 07:33:44;;;;;;;8.95;4.57;;;;;;;5.95;100.00;99710.63;4179473;28;20051;-70
2023/05/03 07:35:47;;;;;;;7.03;3.83;;;;;;;6.03;100.00;99709.03;4184949;28;20045;-70
2023/05/03 07:37:48;;;;;;;6.57;4.20;;;;;;;6.13;100.00;99706.84;4185738;28;20047;-70
2023/05/03 07:39:48;;;;;;;7.10;4.07;;;;;;;6.29;100.00;99700.88;4184666;28;20637;-70
2023/05/03 07:41:48;;;;;;;5.13;3.33;;;;;;;6.29;98.87;99698.13;4186477;28;20043;-70
2023/05/03 07:43:49;;;;;;;7.63;4.60;;;;;;;6.35;100.00;99696.84;4184285;28;20051;-70
2023/05/03 07:45:49;;;;;;;6.65;3.67;;;;;;;6.38;100.00;99696.22;4180192;28;20049;-70
2023/05/03 07:47:50;;;;;;;6.82;3.85;;;;;;;6.42;100.00;99695.25;4185822;28;20051;-70
2023/05/03 07:49:50;;;;;;;6.30;4.00;;;;;;;6.48;100.00;99690.41;4184748;28;20044;-70
2023/05/03 07:51:51;;;;;;;6.93;4.07;;;;;;;6.57;100.00;99684.94;4186088;28;20033;-70
2023/05/03 07:53:51;;;;;;;7.68;4.03;;;;;;;6.55;99.66;99692.69;4186769;28;20049;-70
2023/05/03 07:55:53;;;;;;;6.85;3.92;;;;;;;6.54;96.82;99688.31;4184875;28;20087;-70
2023/05/03 07:57:58;;;;;;;5.80;3.55;;;;;;;6.55;99.75;99681.69;4183327;28;20354;-70
2023/05/03 07:59:58;;;;;;;7.68;3.90;;;;;;;6.61;100.00;99677.63;4181108;28;20033;-70
2023/05/03 08:01:58;;;;;;;5.85;4.13;;;;;;;6.78;100.00;99685.91;4186369;28;20139;-70
2023/05/03 08:03:59;;;;;;;7.03;4.05;;;;;;;6.80;99.11;99686.41;4183036;28;20028;-70
2023/05/03 08:05:59;;;;;;;4.85;3.80;;;;;;;6.83;98.01;99682.19;4181374;28;20527;-70
2023/05/03 08:08:00;;;;;;;6.05;3.55;;;;;;;6.87;99.82;99683.16;4182508;28;20056;-70
2023/05/03 08:10:01;;;;;;;6.10;3.88;;;;;;;6.91;97.29;99687.69;4185304;28;20504;-70
2023/05/03 08:12:02;;;;;;;9.15;3.83;;;;;;;7.01;98.19;99684.59;4181845;28;20127;-71
2023/05/03 08:14:02;;;;;;;6.00;4.03;;;;;;;7.12;98.80;99673.28;4184253;28;20555;-71
2023/05/03 08:16:03;;;;;;;21.92;10.27;;;;;;;7.23;100.00;99669.84;4190971;28;20043;-71
2023/05/03 08:18:04;;;;;;;27.67;14.55;;;;;;;7.38;100.00;99679.53;4186627;28;20052;-71
2023/05/03 08:20:06;;;;;;;8.38;5.47;;;;;;;7.62;99.27;99678.19;4181274;28;20123;-71
2023/05/03 08:22:09;;;;;;;6.53;4.25;;;;;;;7.79;97.54;99673.41;4182611;28;20144;-70
2023/05/03 08:24:10;;;;;;;7.95;4.30;;;;;;;7.96;99.67;99669.78;4183978;28;20024;-71
2023/05/03 08:26:12;;;;;;;5.93;4.03;;;;;;;8.13;97.25;99675.19;4185394;27;20027;-70
2023/05/03 08:28:13;;;;;;;7.15;5.10;;;;;;;8.30;97.82;99668.78;4184459;28;20032;-70
2023/05/03 08:30:13;;;;;;;7.05;4.65;;;;;;;8.39;96.13;99669.53;4182050;28;20024;-70
2023/05/03 08:32:14;;;;;;;6.20;4.20;;;;;;;8.50;95.04;99669.16;4188424;28;20032;-70
2023/05/03 08:34:14;;;;;;;7.20;4.40;;;;;;;8.68;99.26;99674.19;4181372;28;20124;-70
2023/05/03 08:36:15;;;;;;;7.43;3.78;;;;;;;8.70;95.37;99669.16;4181723;28;20163;-70
2023/05/03 08:38:15;;;;;;;7.25;3.90;;;;;;;8.67;94.48;99683.63;4184464;28;20035;-70
2023/05/03 08:40:15;;;;;;;5.18;4.22;;;;;;;8.81;90.58;99669.56;4181962;28;20032;-70
2023/05/03 08:42:16;;;;;;;10.48;4.82;;;;;;;8.87;92.97;99665.47;4183204;28;20122;-70
2023/05/03 08:44:22;;;;;;;6.90;4.25;;;;;;;8.86;91.66;99674.88;4184990;28;20069;-70
2023/05/03 08:46:24;;;;;;;7.68;4.55;;;;;;;8.80;90.67;99670.72;4186408;28;20492;-70
2023/05/03 08:48:25;;;;;;;8.27;3.80;;;;;;;8.88;91.87;99666.25;4183181;28;20043;-70
2023/05/03 08:50:26;;;;;;;6.45;3.92;;;;;;;9.01;93.07;99670.69;4185254;28;20057;-70
2023/05/03 08:52:26;;;;;;;6.35;3.85;;;;;;;9.09;90.61;99669.78;4179792;28;20147;-70
2023/05/03 08:54:27;;;;;;;6.78;3.97;;;;;;;9.09;89.46;99663.47;4180907;28;20497;-70
2023/05/03 08:56:44;;;;;;;10.65;4.25;;;;;;;9.10;86.72;99663.16;4180493;28;20040;-70
2023/05/03 08:58:44;;;;;;;5.60;3.90;;;;;;;9.09;89.30;99660.69;4180574;28;20040;-70
2023/05/03 09:00:44;;;;;;;5.38;3.38;;;;;;;9.05;90.19;99665.31;4181478;28;20052;-70
2023/05/03 09:02:45;;;;;;;5.90;3.65;;;;;;;9.22;91.42;99667.91;4182267;28;20094;-70
2023/05/03 09:04:46;;;;;;;6.53;3.72;;;;;;;9.27;92.22;99668.50;4183889;28;20539;-70
2023/05/03 09:06:46;;;;;;;5.28;3.58;;;;;;;9.26;85.50;99674.34;4180539;28;20040;-70
2023/05/03 09:08:46;;;;;;;4.47;3.42;;;;;;;9.03;83.88;99665.66;4183419;28;20037;-70
2023/05/03 09:10:47;;;;;;;4.30;3.58;;;;;;;8.94;88.54;99665.72;4184529;28;20067;-70
2023/05/03 09:12:47;;;;;;;6.30;3.38;;;;;;;8.86;89.38;99661.09;4182553;28;20043;-71
2023/05/03 09:14:49;;;;;;;5.53;3.63;;;;;;;8.95;87.35;99661.00;4177895;28;20427;-71
2023/05/03 09:16:49;;;;;;;8.40;4.10;;;;;;;9.04;89.57;99664.50;4178409;28;20032;-71
2023/05/03 09:19:01;;;;;;;3.80;3.08;;;;;;;9.14;88.51;99654.97;4188782;28;20484;-71
2023/05/03 09:21:01;;;;;;;7.32;3.38;;;;;;;9.24;90.70;99654.56;4178939;28;20068;-71
2023/05/03 09:23:02;;;;;;;8.75;4.05;;;;;;;9.38;88.81;99657.81;4181182;28;20048;-71
2023/05/03 09:25:03;;;;;;;5.38;3.10;;;;;;;9.52;87.58;99657.53;4183039;28;20041;-71
2023/05/03 09:27:17;;;;;;;6.30;3.00;;;;;;;9.58;84.91;99656.94;4183831;28;20523;-71
2023/05/03 09:29:28;;;;;;;7.20;3.65;;;;;;;9.59;83.99;99649.44;4176763;28;20049;-71